createdAt,value
2022-12-01T00:01:14.029Z,10.30
2022-12-01T00:03:41.336Z,10.30
2022-12-01T00:06:15.853Z,10.30
2022-12-01T00:09:02.846Z,10.30
2022-12-01T00:11:30.131Z,10.40
2022-12-01T00:13:57.017Z,10.40
2022-12-01T00:16:23.913Z,10.40
2022-12-01T00:18:52.536Z,10.40
2022-12-01T00:21:21.775Z,10.40
2022-12-01T00:23:51.642Z,10.30
2022-12-01T00:26:19.667Z,10.30
2022-12-01T00:28:57.332Z,10.30
2022-12-01T00:31:24.674Z,10.30
2022-12-01T00:33:51.910Z,10.30
2022-12-01T00:36:18.796Z,10.30
2022-12-01T00:38:46.538Z,10.20
2022-12-01T00:41:13.660Z,10.20
2022-12-01T00:43:40.984Z,10.10
2022-12-01T00:46:08.044Z,10.10
2022-12-01T00:48:34.985Z,10.00
2022-12-01T00:51:04.257Z,10.00
2022-12-01T00:53:31.177Z,10.00
2022-12-01T00:55:58.008Z,10.10
2022-12-01T00:58:25.422Z,10.10
2022-12-01T01:01:00.435Z,10.10
2022-12-01T01:03:28.778Z,10.10
2022-12-01T01:05:55.655Z,10.10
2022-12-01T01:08:22.646Z,10.00
2022-12-01T01:10:49.805Z,10.10
2022-12-01T01:13:17.026Z,10.10
2022-12-01T01:15:44.053Z,10.00
2022-12-01T01:18:11.888Z,10.00
2022-12-01T01:20:38.751Z,10.00
2022-12-01T01:23:05.588Z,10.00
2022-12-01T01:25:33.467Z,10.00
2022-12-01T01:28:00.491Z,10.00
2022-12-01T01:30:27.410Z,9.90
2022-12-01T01:32:54.366Z,10.00
2022-12-01T01:35:22.691Z,10.00
2022-12-01T01:37:50.916Z,10.00
2022-12-01T01:40:18.235Z,10.10
2022-12-01T01:42:45.116Z,10.00
2022-12-01T01:45:32.297Z,10.00
2022-12-01T01:48:00.388Z,10.00
2022-12-01T01:50:28.919Z,9.90
2022-12-01T01:53:00.805Z,9.90
2022-12-01T01:55:30.097Z,9.90
2022-12-01T01:57:57.457Z,9.90
2022-12-01T02:00:24.525Z,9.90
2022-12-01T02:02:54.154Z,10.00
2022-12-01T02:05:23.285Z,10.00
2022-12-01T02:07:55.858Z,10.00
2022-12-01T02:10:37.953Z,9.90
2022-12-01T02:13:13.904Z,9.90
2022-12-01T02:16:08.142Z,9.90
2022-12-01T02:18:59.596Z,9.90
2022-12-01T02:22:01.778Z,10.00
2022-12-01T02:24:51.873Z,10.00
2022-12-01T02:27:18.657Z,10.10
2022-12-01T02:30:22.169Z,10.10
2022-12-01T02:33:04.592Z,10.10
2022-12-01T02:35:41.100Z,10.10
2022-12-01T02:38:26.753Z,10.10
2022-12-01T02:41:04.623Z,10.10
2022-12-01T02:44:08.728Z,10.10
2022-12-01T02:46:55.590Z,10.10
2022-12-01T02:49:35.428Z,10.10
2022-12-01T02:52:05.774Z,10.10
2022-12-01T02:54:33.747Z,10.10
2022-12-01T02:57:00.594Z,10.00
2022-12-01T02:59:27.503Z,10.00
2022-12-01T03:02:06.231Z,10.00
2022-12-01T03:05:03.280Z,10.10
2022-12-01T03:07:51.389Z,10.00
2022-12-01T03:10:24.080Z,10.00
2022-12-01T03:12:58.321Z,10.00
2022-12-01T03:15:36.394Z,10.00
2022-12-01T03:18:26.045Z,10.00
2022-12-01T03:21:08.165Z,10.00
2022-12-01T03:23:41.465Z,10.00
2022-12-01T03:26:12.369Z,10.00
2022-12-01T03:29:12.867Z,10.00
2022-12-01T03:31:54.536Z,10.10
2022-12-01T03:34:46.512Z,10.10
2022-12-01T03:37:21.771Z,10.00
2022-12-01T03:39:55.927Z,10.10
2022-12-01T03:42:34.360Z,10.10
2022-12-01T03:45:08.053Z,10.10
2022-12-01T03:47:40.363Z,10.10
2022-12-01T03:50:13.224Z,10.10
2022-12-01T03:53:07.108Z,10.20
2022-12-01T03:55:40.894Z,10.10
2022-12-01T03:58:10.749Z,10.10
2022-12-01T04:00:37.966Z,10.10
2022-12-01T04:03:05.296Z,10.10
2022-12-01T04:05:34.566Z,10.10
2022-12-01T04:08:02.138Z,10.10
2022-12-01T04:10:29.281Z,10.10
2022-12-01T04:12:59.574Z,10.10
2022-12-01T04:15:27.655Z,10.10
2022-12-01T04:17:54.751Z,10.10
2022-12-01T04:20:21.832Z,10.10
2022-12-01T04:22:49.181Z,10.10
2022-12-01T04:25:16.210Z,10.10
2022-12-01T04:27:43.131Z,10.10
2022-12-01T04:30:11.088Z,10.20
2022-12-01T04:32:42.773Z,10.20
2022-12-01T04:35:11.538Z,10.10
2022-12-01T04:37:39.566Z,10.10
2022-12-01T04:40:07.580Z,10.20
2022-12-01T04:42:34.468Z,10.20
2022-12-01T04:45:01.360Z,10.20
2022-12-01T04:47:28.243Z,10.20
2022-12-01T04:49:55.084Z,10.20
2022-12-01T04:52:21.911Z,10.20
2022-12-01T04:54:48.742Z,10.10
2022-12-01T04:57:15.588Z,10.00
2022-12-01T04:59:42.442Z,10.10
2022-12-01T05:02:09.312Z,10.10
2022-12-01T05:04:38.781Z,10.10
2022-12-01T05:07:06.148Z,10.00
2022-12-01T05:09:33.099Z,10.00
2022-12-01T05:11:59.929Z,10.00
2022-12-01T05:14:26.873Z,9.90
2022-12-01T05:16:55.069Z,9.90
2022-12-01T05:19:40.318Z,9.90
2022-12-01T05:22:07.115Z,9.90
2022-12-01T05:24:33.986Z,9.90
2022-12-01T05:27:00.876Z,9.90
2022-12-01T05:29:27.719Z,9.90
2022-12-01T05:31:54.674Z,10.00
2022-12-01T05:34:21.655Z,10.00
2022-12-01T05:36:48.502Z,10.00
2022-12-01T05:39:15.523Z,9.90
2022-12-01T05:41:42.371Z,9.90
2022-12-01T05:44:09.218Z,9.90
2022-12-01T05:46:36.095Z,10.00
2022-12-01T05:49:02.937Z,10.00
2022-12-01T05:51:29.743Z,10.00
2022-12-01T05:53:58.682Z,9.90
2022-12-01T05:56:25.638Z,10.00
2022-12-01T05:58:52.485Z,10.00
2022-12-01T06:01:19.397Z,10.00
2022-12-01T06:03:46.273Z,9.90
2022-12-01T06:06:13.251Z,9.90
2022-12-01T06:08:40.155Z,9.90
2022-12-01T06:11:07.034Z,9.90
2022-12-01T06:13:33.973Z,9.90
2022-12-01T06:16:03.198Z,9.80
2022-12-01T06:18:38.041Z,9.80
2022-12-01T06:21:06.279Z,9.70
2022-12-01T06:23:33.695Z,9.70
2022-12-01T06:26:00.572Z,9.70
2022-12-01T06:28:27.512Z,9.60
2022-12-01T06:30:59.305Z,9.60
2022-12-01T06:33:29.697Z,9.50
2022-12-01T06:36:05.780Z,9.50
2022-12-01T06:38:34.867Z,9.50
2022-12-01T06:41:02.017Z,9.50
2022-12-01T06:43:29.043Z,9.40
2022-12-01T06:46:01.170Z,9.40
2022-12-01T06:48:29.587Z,9.40
2022-12-01T06:51:00.297Z,9.40
2022-12-01T06:53:28.561Z,9.40
2022-12-01T06:56:04.279Z,9.40
2022-12-01T06:58:31.869Z,9.40
2022-12-01T07:00:59.292Z,9.40
2022-12-01T07:03:26.776Z,9.30
2022-12-01T07:06:01.526Z,9.30
2022-12-01T07:08:30.219Z,9.20
2022-12-01T07:11:08.714Z,9.10
2022-12-01T07:13:36.197Z,9.00
2022-12-01T07:16:04.137Z,8.90
2022-12-01T07:18:32.237Z,8.90
2022-12-01T07:21:01.057Z,8.80
2022-12-01T07:23:28.265Z,8.80
2022-12-01T07:26:10.529Z,8.80
2022-12-01T07:28:37.537Z,8.70
2022-12-01T07:31:06.547Z,8.70
2022-12-01T07:33:33.722Z,8.70
2022-12-01T07:36:01.159Z,8.70
2022-12-01T07:38:29.774Z,8.70
2022-12-01T07:41:02.402Z,8.70
2022-12-01T07:43:31.405Z,8.70
2022-12-01T07:46:05.480Z,8.70
2022-12-01T07:48:32.889Z,8.70
2022-12-01T07:50:59.858Z,8.80
2022-12-01T07:53:26.863Z,8.80
2022-12-01T07:55:53.793Z,8.80
2022-12-01T07:58:20.656Z,8.70
2022-12-01T08:00:47.562Z,8.70
2022-12-01T08:03:15.001Z,8.70
2022-12-01T08:05:41.994Z,8.70
2022-12-01T08:08:09.013Z,8.70
2022-12-01T08:10:36.463Z,8.70
2022-12-01T08:13:03.963Z,8.60
2022-12-01T08:15:30.929Z,8.60
2022-12-01T08:18:02.627Z,8.60
2022-12-01T08:20:29.541Z,8.60
2022-12-01T08:22:56.418Z,8.60
2022-12-01T08:25:23.294Z,8.60
2022-12-01T08:27:50.183Z,8.60
2022-12-01T08:30:17.223Z,8.70
2022-12-01T08:32:44.383Z,8.70
2022-12-01T08:35:11.222Z,8.80
2022-12-01T08:37:38.085Z,8.80
2022-12-01T08:40:05.714Z,8.80
2022-12-01T08:42:32.628Z,8.90
2022-12-01T08:44:59.625Z,8.90
2022-12-01T08:47:29.028Z,8.90
2022-12-01T08:49:57.041Z,9.00
2022-12-01T08:52:23.876Z,9.00
2022-12-01T08:54:50.701Z,9.00
2022-12-01T08:57:18.067Z,9.00
2022-12-01T08:59:44.927Z,9.00
2022-12-01T09:02:15.922Z,9.10
2022-12-01T09:04:42.889Z,9.10
2022-12-01T09:07:10.752Z,9.20
2022-12-01T09:09:37.855Z,9.20
2022-12-01T09:12:04.952Z,9.20
2022-12-01T09:14:31.873Z,9.30
2022-12-01T09:16:58.728Z,9.30
2022-12-01T09:19:25.605Z,9.40
2022-12-01T09:21:52.936Z,9.40
2022-12-01T09:24:19.978Z,9.50
2022-12-01T09:26:47.211Z,9.50
2022-12-01T09:29:17.349Z,9.60
2022-12-01T09:31:44.485Z,9.70
2022-12-01T09:34:15.791Z,9.70
2022-12-01T09:36:42.825Z,9.80
2022-12-01T09:39:13.424Z,9.80
2022-12-01T09:41:45.126Z,9.80
2022-12-01T09:44:20.679Z,9.80
2022-12-01T09:46:57.514Z,9.90
2022-12-01T09:49:45.309Z,9.90
2022-12-01T09:52:16.466Z,10.00
2022-12-01T09:54:43.455Z,10.00
2022-12-01T09:57:30.123Z,10.00
2022-12-01T09:59:59.022Z,10.10
2022-12-01T10:02:37.467Z,10.10
2022-12-01T10:05:12.072Z,10.10
2022-12-01T10:07:57.281Z,10.10
2022-12-01T10:10:34.823Z,10.10
2022-12-01T10:13:01.925Z,10.10
2022-12-01T10:15:54.300Z,10.20
2022-12-01T10:18:39.352Z,10.20
2022-12-01T10:21:14.671Z,10.30
2022-12-01T10:24:13.242Z,10.30
2022-12-01T10:27:07.805Z,10.40
2022-12-01T10:29:43.812Z,10.40
2022-12-01T10:32:21.574Z,10.50
2022-12-01T10:34:48.821Z,10.60
2022-12-01T10:37:24.747Z,10.60
2022-12-01T10:39:55.082Z,10.60
2022-12-01T10:42:35.108Z,10.60
2022-12-01T10:45:07.553Z,10.70
2022-12-01T10:47:35.873Z,10.70
2022-12-01T10:50:04.623Z,10.70
2022-12-01T10:52:41.188Z,10.60
2022-12-01T10:55:23.154Z,10.60
2022-12-01T10:57:51.099Z,10.70
2022-12-01T11:00:59.561Z,10.70
2022-12-01T11:03:27.263Z,10.80
2022-12-01T11:05:58.100Z,10.70
2022-12-01T11:08:54.311Z,10.60
2022-12-01T11:11:28.980Z,10.70
2022-12-01T11:13:58.946Z,10.70
2022-12-01T11:16:42.398Z,10.70
2022-12-01T11:19:27.803Z,10.70
2022-12-01T11:22:00.196Z,10.70
2022-12-01T11:24:55.496Z,10.70
2022-12-01T11:27:29.304Z,10.80
2022-12-01T11:30:00.089Z,10.70
2022-12-01T11:32:33.373Z,10.70
2022-12-01T11:35:14.844Z,10.80
2022-12-01T11:38:27.234Z,10.80
2022-12-01T11:41:04.356Z,10.80
2022-12-01T11:43:34.899Z,10.80
2022-12-01T11:46:05.663Z,10.80
2022-12-01T11:48:37.350Z,10.80
2022-12-01T11:51:24.342Z,10.80
2022-12-01T11:54:19.310Z,10.80
2022-12-01T11:56:52.810Z,10.90
2022-12-01T11:59:31.507Z,10.90
2022-12-01T12:02:16.986Z,11.00
2022-12-01T12:05:05.423Z,11.00
2022-12-01T12:07:53.788Z,11.00
2022-12-01T12:10:45.296Z,11.00
2022-12-01T12:13:20.849Z,10.90
2022-12-01T12:16:18.957Z,10.90
2022-12-01T12:19:04.627Z,10.90
2022-12-01T12:21:36.451Z,11.00
2022-12-01T12:24:23.619Z,11.00
2022-12-01T12:27:17.923Z,11.00
2022-12-01T12:30:02.071Z,11.10
2022-12-01T12:32:28.832Z,11.10
2022-12-01T12:35:04.557Z,11.00
2022-12-01T12:37:49.733Z,11.00
2022-12-01T12:40:19.717Z,11.00
2022-12-01T12:42:55.687Z,11.00
2022-12-01T12:45:34.120Z,11.10
2022-12-01T12:48:00.898Z,11.10
2022-12-01T12:50:34.572Z,11.10
2022-12-01T12:53:06.653Z,11.10
2022-12-01T12:55:43.870Z,11.10
2022-12-01T12:58:16.757Z,11.10
2022-12-01T13:00:50.431Z,11.20
2022-12-01T13:03:34.061Z,11.10
2022-12-01T13:06:14.838Z,11.10
2022-12-01T13:08:50.742Z,11.10
2022-12-01T13:11:29.029Z,11.20
2022-12-01T13:14:13.209Z,11.20
2022-12-01T13:16:44.121Z,11.20
2022-12-01T13:19:27.237Z,11.10
2022-12-01T13:21:55.762Z,11.20
2022-12-01T13:24:29.694Z,11.10
2022-12-01T13:27:19.877Z,11.20
2022-12-01T13:29:50.678Z,11.20
2022-12-01T13:32:38.544Z,11.10
2022-12-01T13:35:20.754Z,11.10
2022-12-01T13:37:48.345Z,11.10
2022-12-01T13:40:24.927Z,11.10
2022-12-01T13:43:10.249Z,11.00
2022-12-01T13:45:40.015Z,11.00
2022-12-01T13:48:45.766Z,11.10
2022-12-01T13:51:12.661Z,11.10
2022-12-01T13:53:52.655Z,11.10
2022-12-01T13:56:45.801Z,11.10
2022-12-01T13:59:57.753Z,11.20
2022-12-01T14:02:26.926Z,11.20
2022-12-01T14:04:53.963Z,11.20
2022-12-01T14:07:28.399Z,11.20
2022-12-01T14:10:06.285Z,11.10
2022-12-01T14:12:37.799Z,11.10
2022-12-01T14:15:22.755Z,11.10
2022-12-01T14:18:04.810Z,11.10
2022-12-01T14:20:37.313Z,11.00
2022-12-01T14:23:33.215Z,11.00
2022-12-01T14:26:04.243Z,11.00
2022-12-01T14:28:56.057Z,11.00
2022-12-01T14:31:24.874Z,11.00
2022-12-01T14:34:01.959Z,10.90
2022-12-01T14:36:41.951Z,10.90
2022-12-01T14:39:19.885Z,10.90
2022-12-01T14:41:51.624Z,10.80
2022-12-01T14:44:30.853Z,10.80
2022-12-01T14:47:22.687Z,10.80
2022-12-01T14:50:13.790Z,10.80
2022-12-01T14:52:45.133Z,10.80
2022-12-01T14:55:20.627Z,10.80
2022-12-01T14:57:52.632Z,10.70
2022-12-01T15:00:25.100Z,10.60
2022-12-01T15:02:56.099Z,10.60
2022-12-01T15:05:27.306Z,10.60
2022-12-01T15:08:18.637Z,10.60
2022-12-01T15:10:53.151Z,10.60
2022-12-01T15:13:53.924Z,10.50
2022-12-01T15:16:23.262Z,10.60
2022-12-01T15:18:50.611Z,10.50
2022-12-01T15:21:25.050Z,10.50
2022-12-01T15:24:19.679Z,10.40
2022-12-01T15:26:51.701Z,10.40
2022-12-01T15:29:19.311Z,10.40
2022-12-01T15:32:01.986Z,10.40
2022-12-01T15:34:38.137Z,10.40
2022-12-01T15:37:11.558Z,10.30
2022-12-01T15:39:52.534Z,10.30
2022-12-01T15:42:33.421Z,10.30
2022-12-01T15:45:15.614Z,10.30
2022-12-01T15:47:43.543Z,10.20
2022-12-01T15:50:46.211Z,10.20
2022-12-01T15:53:29.569Z,10.20
2022-12-01T15:55:59.286Z,10.20
2022-12-01T15:58:30.315Z,10.10
2022-12-01T16:01:13.222Z,10.10
2022-12-01T16:03:54.137Z,10.00
2022-12-01T16:06:27.931Z,10.00
2022-12-01T16:09:00.090Z,10.00
2022-12-01T16:11:27.583Z,10.00
2022-12-01T16:14:08.066Z,9.90
2022-12-01T16:16:46.928Z,9.90
2022-12-01T16:19:16.901Z,9.90
2022-12-01T16:21:49.654Z,9.90
2022-12-01T16:24:38.493Z,9.80
2022-12-01T16:27:18.490Z,9.80
2022-12-01T16:30:02.773Z,9.80
2022-12-01T16:32:42.477Z,9.80
2022-12-01T16:35:21.373Z,9.80
2022-12-01T16:37:48.422Z,9.80
2022-12-01T16:40:16.804Z,9.80
2022-12-01T16:42:44.028Z,9.70
2022-12-01T16:45:14.737Z,9.70
2022-12-01T16:47:43.109Z,9.60
2022-12-01T16:50:18.066Z,9.60
2022-12-01T16:52:45.910Z,9.50
2022-12-01T16:55:43.905Z,9.50
2022-12-01T16:58:10.883Z,9.40
2022-12-01T17:00:37.801Z,9.40
2022-12-01T17:03:05.811Z,9.40
2022-12-01T17:05:33.455Z,9.40
2022-12-01T17:08:00.568Z,9.30
2022-12-01T17:10:27.462Z,9.20
2022-12-01T17:12:54.346Z,9.30
2022-12-01T17:15:21.219Z,9.30
2022-12-01T17:17:48.188Z,9.20
2022-12-01T17:20:15.436Z,9.30
2022-12-01T17:22:42.578Z,9.20
2022-12-01T17:25:09.868Z,9.20
2022-12-01T17:27:37.718Z,9.20
2022-12-01T17:30:09.078Z,9.20
2022-12-01T17:32:36.275Z,9.20
2022-12-01T17:35:03.472Z,9.10
2022-12-01T17:37:30.388Z,9.10
2022-12-01T17:39:57.366Z,9.10
2022-12-01T17:42:24.381Z,9.10
2022-12-01T17:44:51.482Z,9.10
2022-12-01T17:47:18.601Z,9.10
2022-12-01T17:49:45.487Z,9.00
2022-12-01T17:52:12.522Z,9.00
2022-12-01T17:54:39.423Z,9.00
2022-12-01T17:57:07.519Z,9.00
2022-12-01T17:59:35.548Z,9.00
2022-12-01T18:02:03.731Z,9.00
2022-12-01T18:04:31.843Z,9.00
2022-12-01T18:06:59.535Z,8.90
2022-12-01T18:09:26.867Z,8.90
2022-12-01T18:11:56.239Z,8.80
2022-12-01T18:14:24.304Z,8.80
2022-12-01T18:16:51.862Z,8.70
2022-12-01T18:19:19.508Z,8.70
2022-12-01T18:21:46.440Z,8.60
2022-12-01T18:24:13.566Z,8.60
2022-12-01T18:26:41.354Z,8.60
2022-12-01T18:29:14.445Z,8.60
2022-12-01T18:31:41.879Z,8.60
2022-12-01T18:34:11.158Z,8.60
2022-12-01T18:36:39.962Z,8.60
2022-12-01T18:39:09.026Z,8.60
2022-12-01T18:41:36.803Z,8.60
2022-12-01T18:44:04.442Z,8.60
2022-12-01T18:46:31.687Z,8.60
2022-12-01T18:49:02.962Z,8.60
2022-12-01T18:51:32.229Z,8.60
2022-12-01T18:54:03.583Z,8.60
2022-12-01T18:56:31.099Z,8.50
2022-12-01T18:58:59.858Z,8.50
2022-12-01T19:01:32.245Z,8.40
2022-12-01T19:04:00.481Z,8.40
2022-12-01T19:06:28.871Z,8.40
2022-12-01T19:08:59.996Z,8.30
2022-12-01T19:11:27.933Z,8.30
2022-12-01T19:13:56.819Z,8.20
2022-12-01T19:16:24.393Z,8.20
2022-12-01T19:18:52.851Z,8.10
2022-12-01T19:21:20.669Z,8.10
2022-12-01T19:23:48.458Z,8.00
2022-12-01T19:26:21.797Z,8.00
2022-12-01T19:28:49.307Z,8.00
2022-12-01T19:31:18.734Z,7.90
2022-12-01T19:33:46.580Z,7.90
2022-12-01T19:36:25.035Z,7.90
2022-12-01T19:38:52.976Z,7.90
2022-12-01T19:41:20.835Z,7.90
2022-12-01T19:43:48.141Z,7.90
2022-12-01T19:46:17.835Z,7.90
2022-12-01T19:48:45.118Z,7.90
2022-12-01T19:51:20.209Z,7.90
2022-12-01T19:53:47.926Z,8.00
2022-12-01T19:56:15.051Z,8.00
2022-12-01T19:58:41.961Z,8.00
2022-12-01T20:01:11.926Z,8.00
2022-12-01T20:03:40.661Z,7.90
2022-12-01T20:06:14.444Z,7.90
2022-12-01T20:08:41.877Z,7.90
2022-12-01T20:11:09.193Z,7.90
2022-12-01T20:13:39.980Z,7.90
2022-12-01T20:16:08.605Z,7.90
2022-12-01T20:18:36.319Z,7.90
2022-12-01T20:21:04.078Z,8.00
2022-12-01T20:23:31.001Z,8.00
2022-12-01T20:26:02.856Z,8.00
2022-12-01T20:28:30.583Z,8.00
2022-12-01T20:30:58.353Z,8.00
2022-12-01T20:33:26.166Z,7.90
2022-12-01T20:35:53.068Z,7.90
2022-12-01T20:38:25.828Z,7.90
2022-12-01T20:40:54.446Z,7.80
2022-12-01T20:43:21.690Z,7.80
2022-12-01T20:45:51.496Z,7.80
2022-12-01T20:48:18.561Z,7.80
2022-12-01T20:50:45.562Z,7.80
2022-12-01T20:53:12.664Z,7.80
2022-12-01T20:55:39.870Z,7.80
2022-12-01T20:58:10.499Z,7.80
2022-12-01T21:00:39.993Z,7.80
2022-12-01T21:03:07.173Z,7.90
2022-12-01T21:05:34.051Z,7.90
2022-12-01T21:08:01.944Z,7.90
2022-12-01T21:10:29.192Z,8.00
2022-12-01T21:13:21.640Z,8.00
2022-12-01T21:16:00.224Z,8.00
2022-12-01T21:18:38.319Z,8.00
2022-12-01T21:21:21.191Z,8.10
2022-12-01T21:23:54.883Z,8.10
2022-12-01T21:26:21.789Z,8.10
2022-12-01T21:28:48.672Z,8.20
2022-12-01T21:31:16.073Z,8.30
2022-12-01T21:33:43.397Z,8.40
2022-12-01T21:36:22.227Z,8.40
2022-12-01T21:38:53.374Z,8.50
2022-12-01T21:41:29.924Z,8.50
2022-12-01T21:44:02.663Z,8.50
2022-12-01T21:46:30.035Z,8.60
2022-12-01T21:48:57.101Z,8.60
2022-12-01T21:51:25.668Z,8.60
2022-12-01T21:53:55.965Z,8.70
2022-12-01T21:56:26.919Z,8.80
2022-12-01T21:58:58.957Z,8.90
2022-12-01T22:01:34.195Z,8.80
2022-12-01T22:04:06.058Z,8.90
2022-12-01T22:06:39.571Z,8.90
2022-12-01T22:09:31.710Z,8.90
2022-12-01T22:12:10.524Z,8.90
2022-12-01T22:14:37.443Z,8.90
2022-12-01T22:17:07.547Z,8.90
2022-12-01T22:19:39.655Z,8.90
2022-12-01T22:22:09.461Z,8.90
2022-12-01T22:24:40.981Z,8.90
2022-12-01T22:27:29.814Z,8.90
2022-12-01T22:30:19.535Z,8.90
2022-12-01T22:33:03.832Z,8.90
2022-12-01T22:35:43.259Z,8.90
2022-12-01T22:38:39.850Z,8.90
2022-12-01T22:41:12.110Z,9.00
2022-12-01T22:43:48.289Z,9.00
2022-12-01T22:46:25.817Z,9.10
2022-12-01T22:49:20.188Z,9.00
2022-12-01T22:51:50.031Z,9.10
2022-12-01T22:54:16.840Z,9.10
2022-12-01T22:56:48.518Z,9.10
2022-12-01T22:59:15.364Z,9.20
2022-12-01T23:02:01.146Z,9.10
2022-12-01T23:04:38.493Z,9.10
2022-12-01T23:07:23.915Z,9.10
2022-12-01T23:09:50.867Z,9.10
2022-12-01T23:12:27.215Z,9.10
2022-12-01T23:15:16.022Z,9.10
2022-12-01T23:17:42.903Z,9.10
2022-12-01T23:20:28.670Z,9.10
2022-12-01T23:22:57.239Z,9.10
2022-12-01T23:25:25.767Z,9.10
2022-12-01T23:27:54.641Z,9.00
2022-12-01T23:30:22.510Z,9.00
2022-12-01T23:33:19.289Z,9.00
2022-12-01T23:35:55.928Z,9.00
2022-12-01T23:38:28.495Z,9.00
2022-12-01T23:40:59.346Z,9.00
2022-12-01T23:43:33.162Z,9.00
2022-12-01T23:46:05.940Z,9.00
2022-12-01T23:48:37.842Z,9.00
2022-12-01T23:51:10.940Z,9.00
2022-12-01T23:53:40.292Z,9.00
2022-12-01T23:56:12.483Z,9.00
2022-12-01T23:58:39.347Z,9.00
